Time;durP1;ratioP1;P1;durP2;ratioP2;P2;SDS_P1;SDS_P2;PMS_P1;PMS_P2;Temp;Humidity;BMP_temperature;BMP_pressure;BME280_temperature;BME280_humidity;BME280_pressure;Samples;Min_cycle;Max_cycle;Signal;HPM_P1;HPM_P2
2023/04/28 00:00:07;;;;;;;3.10;2.90;;;23.50;56.70;;;;;;5030690;28;20484;-72
2023/04/28 00:02:35;;;;;;;2.20;2.10;;;23.50;56.70;;;;;;5029853;28;20463;-70
2023/04/28 00:05:06;;;;;;;3.00;2.80;;;23.50;56.70;;;;;;5026328;28;20884;-73
2023/04/28 00:07:34;;;;;;;2.80;2.60;;;23.50;56.70;;;;;;5021527;28;20463;-72
2023/04/28 00:10:02;;;;;;;3.03;2.87;;;23.50;56.70;;;;;;5023447;28;20504;-70
2023/04/28 00:12:30;;;;;;;2.87;2.67;;;23.50;56.60;;;;;;5029284;28;20456;-71
2023/04/28 00:14:58;;;;;;;2.30;2.20;;;23.50;56.60;;;;;;5030790;28;20475;-73
2023/04/28 00:17:27;;;;;;;3.43;2.63;;;23.50;56.60;;;;;;5029133;28;20951;-71
2023/04/28 00:19:55;;;;;;;2.87;2.67;;;23.50;56.60;;;;;;5023565;28;20471;-71
2023/04/28 00:22:24;;;;;;;2.63;2.43;;;23.50;56.60;;;;;;5030181;28;20453;-71
2023/04/28 00:24:53;;;;;;;2.53;2.43;;;23.50;56.60;;;;;;5024012;28;20988;-71
2023/04/28 00:27:21;;;;;;;2.63;2.43;;;23.50;56.60;;;;;;5018545;28;20468;-70
2023/04/28 00:29:49;;;;;;;2.90;2.70;;;23.50;56.60;;;;;;5013163;28;20562;-71
2023/04/28 00:32:17;;;;;;;3.03;2.83;;;23.50;56.50;;;;;;5025844;28;20461;-71
2023/04/28 00:34:45;;;;;;;2.80;2.67;;;23.50;56.50;;;;;;5018452;28;20457;-73
2023/04/28 00:37:15;;;;;;;2.90;2.70;;;23.50;56.50;;;;;;5007847;28;20461;-70
2023/04/28 00:39:45;;;;;;;2.77;2.50;;;23.50;56.50;;;;;;5011293;28;20582;-70
2023/04/28 00:42:14;;;;;;;2.73;2.53;;;23.50;56.50;;;;;;5029440;28;20494;-73
2023/04/28 00:44:42;;;;;;;2.53;2.33;;;23.50;56.50;;;;;;5032046;28;21014;-70
2023/04/28 00:47:11;;;;;;;2.50;2.40;;;23.50;56.50;;;;;;5010851;28;20469;-70
2023/04/28 00:49:39;;;;;;;2.33;2.23;;;23.50;56.50;;;;;;5006868;28;20466;-71
2023/04/28 00:52:07;;;;;;;2.90;2.70;;;23.50;56.50;;;;;;5028344;28;20547;-70
2023/04/28 00:54:36;;;;;;;2.60;2.50;;;23.50;56.40;;;;;;5010348;28;20471;-72
2023/04/28 00:57:06;;;;;;;2.83;2.63;;;23.50;56.40;;;;;;5027415;28;20464;-72
2023/04/28 00:59:34;;;;;;;2.50;2.40;;;23.50;56.40;;;;;;5006971;28;20567;-73
2023/04/28 01:02:05;;;;;;;2.93;2.83;;;23.50;56.40;;;;;;5026267;28;20535;-71
2023/04/28 01:04:34;;;;;;;2.70;2.50;;;23.40;56.40;;;;;;5000376;28;20491;-71
2023/04/28 01:07:03;;;;;;;2.87;2.67;;;23.40;56.40;;;;;;5008894;28;20824;-71
2023/04/28 01:09:31;;;;;;;2.83;2.33;;;23.40;56.40;;;;;;5002301;28;20823;-71
2023/04/28 01:12:00;;;;;;;3.43;3.13;;;23.40;56.40;;;;;;5008379;28;20558;-72
2023/04/28 01:14:45;;;;;;;2.73;2.53;;;23.40;56.40;;;;;;5010756;28;20472;-71
2023/04/28 01:17:14;;;;;;;2.90;2.70;;;23.40;56.40;;;;;;5010000;28;21022;-72
2023/04/28 01:19:42;;;;;;;2.57;2.37;;;23.40;56.40;;;;;;5010530;28;20507;-71
2023/04/28 01:22:14;;;;;;;2.40;2.30;;;23.40;56.40;;;;;;5007124;28;20511;-71
2023/04/28 01:24:44;;;;;;;2.37;2.23;;;23.40;56.40;;;;;;5007393;28;20477;-72
2023/04/28 01:27:14;;;;;;;2.70;2.50;;;23.40;56.40;;;;;;5009451;28;20837;-72
2023/04/28 01:29:42;;;;;;;2.53;2.33;;;23.40;56.40;;;;;;5011438;28;20488;-71
2023/04/28 01:32:10;;;;;;;2.70;2.50;;;23.40;56.30;;;;;;5026526;28;20465;-71
2023/04/28 01:34:39;;;;;;;2.50;2.30;;;23.40;56.40;;;;;;5011027;28;20971;-72
2023/04/28 01:37:08;;;;;;;2.80;2.60;;;23.40;56.40;;;;;;5007777;28;20959;-72
2023/04/28 01:39:37;;;;;;;2.60;2.40;;;23.40;56.40;;;;;;5004270;28;21116;-71
2023/04/28 01:42:07;;;;;;;2.80;2.70;;;23.40;56.30;;;;;;5028027;28;20471;-71
2023/04/28 01:44:35;;;;;;;2.20;2.10;;;23.40;56.40;;;;;;5010222;28;20972;-74
2023/04/28 01:47:05;;;;;;;2.50;2.33;;;23.40;56.40;;;;;;5028093;28;20546;-72
2023/04/28 01:49:35;;;;;;;2.40;2.30;;;23.40;56.40;;;;;;5030998;28;20483;-71
2023/04/28 01:52:03;;;;;;;2.73;2.53;;;23.40;56.30;;;;;;5022993;28;20475;-74
2023/04/28 01:54:32;;;;;;;2.67;2.47;;;23.30;56.30;;;;;;4996162;28;20950;-72
2023/04/28 01:57:01;;;;;;;3.33;3.10;;;23.30;56.30;;;;;;5011031;28;20460;-71
2023/04/28 01:59:30;;;;;;;2.30;2.20;;;23.30;56.30;;;;;;5012622;28;20475;-73
2023/04/28 02:01:59;;;;;;;2.43;2.30;;;23.30;56.30;;;;;;5044424;28;20496;-72
2023/04/28 02:04:27;;;;;;;2.97;2.77;;;23.30;56.30;;;;;;5017615;28;20452;-71
2023/04/28 02:06:55;;;;;;;3.00;2.80;;;23.30;56.30;;;;;;5027020;28;20455;-73
2023/04/28 02:09:23;;;;;;;3.20;2.73;;;23.30;56.30;;;;;;5015550;28;20547;-73
2023/04/28 02:11:52;;;;;;;2.50;2.40;;;23.30;56.30;;;;;;5025338;28;20495;-71
2023/04/28 02:14:22;;;;;;;2.43;2.33;;;23.30;56.30;;;;;;5004250;28;20563;-70
2023/04/28 02:16:52;;;;;;;2.63;2.43;;;23.30;56.30;;;;;;5013546;28;20894;-75
2023/04/28 02:19:20;;;;;;;2.50;2.40;;;23.30;56.40;;;;;;5009490;28;20472;-71
2023/04/28 02:21:48;;;;;;;2.97;2.77;;;23.30;56.30;;;;;;5028308;28;20494;-71
2023/04/28 02:24:16;;;;;;;2.80;2.60;;;23.30;56.30;;;;;;5033570;28;20972;-73
2023/04/28 02:26:45;;;;;;;3.53;3.23;;;23.30;56.40;;;;;;5008468;28;20874;-73
2023/04/28 02:29:13;;;;;;;2.07;1.90;;;23.30;56.30;;;;;;5020280;28;20464;-71
2023/04/28 02:31:41;;;;;;;2.30;2.20;;;23.30;56.40;;;;;;5022008;28;21144;-71
2023/04/28 02:34:11;;;;;;;3.47;3.27;;;23.30;56.40;;;;;;5016779;28;20463;-73
2023/04/28 02:36:39;;;;;;;2.30;2.20;;;23.30;56.40;;;;;;5025784;28;20468;-71
2023/04/28 02:39:08;;;;;;;2.90;2.70;;;23.30;56.40;;;;;;5013913;28;20516;-71
2023/04/28 02:41:36;;;;;;;2.80;2.60;;;23.30;56.40;;;;;;5015629;28;20574;-74
2023/04/28 02:44:04;;;;;;;2.47;2.30;;;23.30;56.40;;;;;;5003982;28;20963;-73
2023/04/28 02:46:32;;;;;;;2.40;2.27;;;23.30;56.40;;;;;;5026595;28;20457;-71
2023/04/28 02:49:00;;;;;;;2.60;2.40;;;23.30;56.40;;;;;;5027655;28;20464;-72
2023/04/28 02:51:30;;;;;;;2.40;2.20;;;23.30;56.40;;;;;;5012496;28;20479;-72
2023/04/28 02:53:58;;;;;;;3.17;3.03;;;23.30;56.40;;;;;;5034275;28;20543;-71
2023/04/28 02:56:28;;;;;;;2.33;2.20;;;23.30;56.40;;;;;;5025939;28;20489;-70
2023/04/28 02:58:57;;;;;;;2.10;2.00;;;23.20;56.40;;;;;;5012036;28;20464;-70
2023/04/28 03:01:25;;;;;;;2.73;2.53;;;23.20;56.40;;;;;;5014236;28;20468;-71
2023/04/28 03:03:53;;;;;;;2.40;2.10;;;23.20;56.40;;;;;;5021114;28;20466;-76
2023/04/28 03:06:22;;;;;;;2.07;1.97;;;23.20;56.40;;;;;;5003284;28;20494;-73
2023/04/28 03:08:51;;;;;;;2.47;2.30;;;23.20;56.40;;;;;;5012403;28;20974;-70
2023/04/28 03:11:20;;;;;;;2.43;2.30;;;23.20;56.40;;;;;;5010052;28;21030;-74
2023/04/28 03:13:48;;;;;;;2.33;2.13;;;23.20;56.40;;;;;;5011256;28;20457;-72
2023/04/28 03:16:16;;;;;;;2.40;2.30;;;23.20;56.40;;;;;;5001289;28;20518;-70
2023/04/28 03:18:45;;;;;;;2.77;2.57;;;23.20;56.40;;;;;;5028468;28;20476;-71
2023/04/28 03:21:13;;;;;;;2.53;2.43;;;23.20;56.40;;;;;;5011633;28;20504;-73
2023/04/28 03:23:41;;;;;;;2.60;2.40;;;23.20;56.40;;;;;;5011993;28;20465;-71
2023/04/28 03:26:10;;;;;;;2.20;2.10;;;23.20;56.40;;;;;;5031747;28;20453;-71
2023/04/28 03:28:39;;;;;;;2.97;2.77;;;23.20;56.40;;;;;;4998773;28;20458;-70
2023/04/28 03:31:07;;;;;;;2.13;2.03;;;23.20;56.40;;;;;;5009931;28;20465;-70
2023/04/28 03:33:35;;;;;;;2.37;2.27;;;23.20;56.30;;;;;;5006089;28;20556;-72
2023/04/28 03:36:04;;;;;;;2.30;2.20;;;23.20;56.30;;;;;;5014496;28;20797;-71
2023/04/28 03:38:32;;;;;;;3.13;2.47;;;23.20;56.40;;;;;;5006810;28;20526;-71
2023/04/28 03:41:00;;;;;;;2.80;2.60;;;23.20;56.40;;;;;;5008113;28;20480;-71
2023/04/28 03:43:32;;;;;;;1.90;1.80;;;23.20;56.30;;;;;;5023849;28;20457;-71
2023/04/28 03:46:15;;;;;;;2.50;2.40;;;23.20;56.40;;;;;;5006526;28;20470;-71
2023/04/28 03:48:44;;;;;;;2.40;2.23;;;23.20;56.40;;;;;;5006766;28;20453;-71
2023/04/28 03:51:13;;;;;;;2.53;2.33;;;23.20;56.40;;;;;;5006556;28;20460;-72
2023/04/28 03:53:42;;;;;;;2.23;2.13;;;23.10;56.50;;;;;;5013254;28;20461;-72
2023/04/28 03:56:10;;;;;;;3.07;2.33;;;23.20;56.50;;;;;;5032681;28;20467;-72
2023/04/28 03:58:41;;;;;;;2.07;1.97;;;23.20;56.50;;;;;;5002210;28;20920;-73
2023/04/28 04:01:09;;;;;;;2.23;2.07;;;23.20;56.50;;;;;;5019733;28;20477;-72
2023/04/28 04:03:38;;;;;;;2.20;2.10;;;23.20;56.50;;;;;;5013832;28;20471;-72
2023/04/28 04:06:07;;;;;;;2.40;2.20;;;23.20;56.50;;;;;;5007512;28;20480;-71
2023/04/28 04:08:35;;;;;;;2.27;2.13;;;23.30;56.40;;;;;;5029817;28;20550;-72
2023/04/28 04:11:03;;;;;;;2.40;2.30;;;23.30;56.30;;;;;;5002540;28;21007;-71
2023/04/28 04:13:32;;;;;;;2.60;2.40;;;23.30;56.20;;;;;;5012461;28;20550;-71
2023/04/28 04:16:06;;;;;;;2.17;2.07;;;23.40;56.10;;;;;;5010894;28;20472;-71
2023/04/28 04:18:35;;;;;;;2.87;2.67;;;23.40;56.10;;;;;;5010669;28;21312;-70
2023/04/28 04:21:20;;;;;;;2.80;2.60;;;23.40;56.00;;;;;;5009828;28;20484;-74
2023/04/28 04:23:50;;;;;;;2.07;1.97;;;23.40;56.00;;;;;;5012759;28;20491;-72
2023/04/28 04:26:19;;;;;;;2.17;2.07;;;23.40;56.00;;;;;;5024571;28;20492;-70
2023/04/28 04:28:49;;;;;;;2.00;1.90;;;23.40;55.90;;;;;;5008623;28;20470;-71
2023/04/28 04:31:19;;;;;;;2.27;2.17;;;23.40;55.90;;;;;;5008457;28;20484;-70
2023/04/28 04:33:47;;;;;;;3.07;2.97;;;23.40;55.90;;;;;;5022189;28;20458;-72
2023/04/28 04:36:19;;;;;;;1.93;1.83;;;23.40;55.90;;;;;;4998377;28;20459;-75
2023/04/28 04:38:48;;;;;;;2.50;2.40;;;23.40;55.90;;;;;;5015610;28;21063;-71
2023/04/28 04:41:19;;;;;;;2.23;2.13;;;23.40;55.90;;;;;;5024797;28;20485;-70
2023/04/28 04:43:48;;;;;;;2.90;2.70;;;23.40;55.80;;;;;;5007122;28;20546;-72
2023/04/28 04:46:18;;;;;;;2.60;2.40;;;23.40;55.80;;;;;;5008438;28;20471;-74
2023/04/28 04:48:46;;;;;;;3.07;2.40;;;23.30;55.80;;;;;;5012688;28;20798;-73
2023/04/28 04:51:14;;;;;;;2.60;2.50;;;23.30;55.90;;;;;;5006145;28;20458;-72
2023/04/28 04:53:43;;;;;;;2.83;2.63;;;23.30;55.90;;;;;;5009062;28;20973;-71
2023/04/28 04:56:11;;;;;;;2.27;2.17;;;23.30;55.90;;;;;;5032976;28;20526;-74
2023/04/28 04:58:40;;;;;;;3.00;2.20;;;23.30;55.90;;;;;;5012687;28;20558;-73
2023/04/28 05:01:42;;;;;;;2.20;2.00;;;23.30;56.00;;;;;;4978231;28;20484;-71
2023/04/28 05:04:10;;;;;;;2.97;1.90;;;23.30;56.10;;;;;;5012235;28;20574;-71
2023/04/28 05:06:39;;;;;;;2.43;2.33;;;23.30;56.20;;;;;;5008348;28;20955;-71
2023/04/28 05:09:08;;;;;;;3.47;3.17;;;23.20;56.40;;;;;;5010419;28;20464;-73
2023/04/28 05:11:36;;;;;;;2.57;2.47;;;23.20;56.50;;;;;;5010457;28;20457;-71
2023/04/28 05:14:04;;;;;;;1.90;1.80;;;23.20;56.50;;;;;;5035376;28;21009;-72
2023/04/28 05:16:33;;;;;;;2.80;2.60;;;23.20;56.60;;;;;;5005961;28;20499;-72
2023/04/28 05:19:09;;;;;;;2.30;2.13;;;23.20;56.60;;;;;;4997222;28;21327;-72
2023/04/28 05:21:37;;;;;;;2.40;2.30;;;23.20;56.70;;;;;;5025677;28;20479;-71
2023/04/28 05:24:06;;;;;;;2.77;2.40;;;23.20;56.80;;;;;;5006857;28;20467;-71
2023/04/28 05:26:36;;;;;;;2.80;2.20;;;23.20;56.90;;;;;;5041695;28;20466;-71
2023/04/28 05:29:08;;;;;;;2.70;1.90;;;23.20;56.90;;;;;;5005335;28;20467;-71
2023/04/28 05:31:36;;;;;;;2.30;2.20;;;23.20;57.00;;;;;;4999484;28;20467;-72
2023/04/28 05:34:05;;;;;;;2.87;2.43;;;23.20;57.10;;;;;;5009090;28;20490;-72
2023/04/28 05:36:34;;;;;;;2.77;2.53;;;23.20;57.10;;;;;;5012423;28;20731;-72
2023/04/28 05:39:03;;;;;;;2.17;2.00;;;23.20;57.20;;;;;;5019361;28;20494;-73
2023/04/28 05:41:32;;;;;;;2.33;2.23;;;23.20;57.20;;;;;;5002435;28;20490;-72
2023/04/28 05:44:00;;;;;;;2.63;2.40;;;23.20;57.20;;;;;;4996636;28;20800;-72
2023/04/28 05:46:29;;;;;;;2.17;2.07;;;23.20;57.20;;;;;;5006957;28;20804;-72
2023/04/28 05:49:01;;;;;;;2.40;2.30;;;23.20;57.20;;;;;;5016331;28;20518;-75
2023/04/28 05:51:35;;;;;;;3.37;2.27;;;23.20;57.20;;;;;;5003710;28;20558;-73
2023/04/28 05:54:03;;;;;;;2.87;2.70;;;23.20;57.20;;;;;;5006569;28;20960;-72
2023/04/28 05:56:37;;;;;;;2.47;2.27;;;23.20;57.20;;;;;;5006162;28;20972;-71
2023/04/28 05:59:05;;;;;;;2.83;2.63;;;23.20;57.30;;;;;;5028291;28;20955;-72
2023/04/28 06:01:33;;;;;;;2.10;1.90;;;23.20;57.30;;;;;;5018882;28;20574;-75
2023/04/28 06:04:01;;;;;;;2.50;2.30;;;23.20;57.30;;;;;;5036174;28;20469;-72
2023/04/28 06:06:31;;;;;;;2.37;2.27;;;23.30;57.30;;;;;;5006844;28;20461;-71
2023/04/28 06:09:01;;;;;;;2.50;2.30;;;23.30;57.30;;;;;;5010691;28;20483;-72
2023/04/28 06:11:30;;;;;;;2.73;2.53;;;23.30;57.40;;;;;;5014164;28;20956;-71
2023/04/28 06:13:58;;;;;;;3.07;2.77;;;23.30;57.30;;;;;;5016724;28;20534;-76
2023/04/28 06:16:26;;;;;;;3.20;2.90;;;23.30;57.30;;;;;;5012504;28;20456;-72
2023/04/28 06:18:55;;;;;;;5.03;2.47;;;23.30;57.40;;;;;;5010300;28;20543;-72
2023/04/28 06:21:23;;;;;;;2.80;2.60;;;23.30;57.40;;;;;;5003258;28;20808;-72
2023/04/28 06:23:52;;;;;;;2.43;2.23;;;23.30;57.40;;;;;;5012548;28;20460;-74
2023/04/28 06:26:22;;;;;;;4.30;2.70;;;23.20;57.40;;;;;;5008814;28;20468;-72
2023/04/28 06:28:51;;;;;;;3.33;2.80;;;23.20;57.50;;;;;;5010153;28;20452;-72
2023/04/28 06:31:19;;;;;;;3.50;2.13;;;23.20;57.50;;;;;;4995413;28;20572;-71
2023/04/28 06:33:47;;;;;;;2.63;2.43;;;23.20;57.50;;;;;;5025264;28;20566;-71
2023/04/28 06:36:16;;;;;;;4.20;2.33;;;23.20;57.50;;;;;;5006865;28;20526;-73
2023/04/28 06:38:45;;;;;;;3.13;2.60;;;23.20;57.60;;;;;;5003024;28;20556;-73
2023/04/28 06:41:13;;;;;;;6.40;2.40;;;23.20;57.60;;;;;;5027287;28;20452;-72
2023/04/28 06:43:46;;;;;;;2.73;2.40;;;23.10;57.60;;;;;;4993562;28;20481;-73
2023/04/28 06:46:20;;;;;;;4.03;2.50;;;23.10;57.70;;;;;;5021211;28;20463;-75
2023/04/28 06:48:49;;;;;;;2.90;2.70;;;23.10;57.70;;;;;;5007028;28;20448;-72
2023/04/28 06:51:17;;;;;;;4.53;2.80;;;23.10;58.40;;;;;;5002105;28;20499;-79
2023/04/28 06:53:45;;;;;;;3.40;3.20;;;23.10;58.80;;;;;;5008069;28;20535;-73
2023/04/28 06:56:14;;;;;;;2.97;2.50;;;23.10;59.10;;;;;;5017199;28;20498;-76
2023/04/28 06:58:43;;;;;;;4.73;2.70;;;23.10;59.20;;;;;;5021243;28;20467;-75
2023/04/28 07:01:13;;;;;;;2.47;2.27;;;23.20;59.50;;;;;;5024687;28;20981;-79
2023/04/28 07:03:41;;;;;;;3.57;3.27;;;23.20;59.50;;;;;;5026325;28;20485;-76
2023/04/28 07:06:10;;;;;;;3.80;3.20;;;23.20;59.70;;;;;;5031309;28;20461;-73
2023/04/28 07:08:38;;;;;;;6.00;3.47;;;23.20;59.80;;;;;;5021842;28;20490;-72
2023/04/28 07:11:06;;;;;;;4.00;2.73;;;23.30;59.90;;;;;;5025930;28;20468;-74
2023/04/28 07:13:34;;;;;;;5.80;2.90;;;23.30;60.00;;;;;;5024050;28;20504;-75
2023/04/28 07:16:03;;;;;;;5.47;3.10;;;23.30;60.00;;;;;;5013971;28;20456;-74
2023/04/28 07:18:33;;;;;;;7.67;3.50;;;23.30;60.10;;;;;;5023998;28;20476;-74
2023/04/28 07:21:01;;;;;;;9.03;3.80;;;23.30;60.20;;;;;;5000244;28;20569;-73
2023/04/28 07:23:32;;;;;;;3.13;2.90;;;23.30;60.20;;;;;;5026866;28;20979;-78
2023/04/28 07:26:00;;;;;;;4.83;2.83;;;23.40;60.30;;;;;;5018888;28;20451;-73
2023/04/28 07:28:28;;;;;;;4.63;2.87;;;23.40;60.50;;;;;;5023295;28;20453;-75
2023/04/28 07:30:57;;;;;;;3.30;3.00;;;23.40;60.70;;;;;;5009321;28;20892;-74
2023/04/28 07:33:25;;;;;;;4.03;3.30;;;23.40;60.80;;;;;;5024802;28;20493;-74
2023/04/28 07:35:55;;;;;;;4.00;2.97;;;23.40;60.70;;;;;;5022353;28;21037;-77
2023/04/28 07:38:23;;;;;;;5.53;3.37;;;23.50;60.70;;;;;;5024354;28;20495;-75
2023/04/28 07:40:52;;;;;;;4.00;3.20;;;23.50;60.70;;;;;;5024292;28;20531;-73
2023/04/28 07:43:20;;;;;;;5.80;2.67;;;23.50;60.70;;;;;;5021925;28;20507;-75
2023/04/28 07:45:48;;;;;;;3.87;2.67;;;23.50;60.70;;;;;;5021790;28;20468;-72
2023/04/28 07:48:17;;;;;;;5.10;2.93;;;23.50;60.60;;;;;;5029300;28;20461;-73
2023/04/28 07:50:45;;;;;;;4.30;2.73;;;23.50;60.70;;;;;;5021317;28;20480;-75
2023/04/28 07:53:15;;;;;;;3.50;2.70;;;23.50;60.70;;;;;;5012437;28;20543;-73
2023/04/28 07:55:44;;;;;;;4.03;3.80;;;23.50;60.70;;;;;;5026178;28;20504;-74
2023/04/28 07:58:13;;;;;;;4.90;3.00;;;23.50;60.70;;;;;;5016524;28;20458;-75
2023/04/28 08:00:41;;;;;;;4.40;2.50;;;23.50;60.60;;;;;;5029768;28;20476;-74
2023/04/28 08:03:09;;;;;;;3.37;2.83;;;23.60;60.40;;;;;;5010484;28;20540;-73
2023/04/28 08:05:38;;;;;;;3.43;2.93;;;23.60;60.30;;;;;;5031059;28;20556;-83
2023/04/28 08:08:07;;;;;;;2.50;2.30;;;23.60;60.40;;;;;;5025046;28;20495;-80
2023/04/28 08:10:36;;;;;;;3.90;2.87;;;23.60;60.50;;;;;;5024392;28;20535;-75
2023/04/28 08:13:05;;;;;;;3.40;2.70;;;23.60;60.50;;;;;;5019316;28;20493;-75
2023/04/28 08:15:33;;;;;;;5.33;3.10;;;23.60;60.50;;;;;;5020663;28;20522;-76
2023/04/28 08:18:01;;;;;;;4.30;2.67;;;23.60;60.40;;;;;;5025187;28;20452;-74
2023/04/28 08:20:31;;;;;;;3.53;2.77;;;23.60;60.50;;;;;;5028599;28;20860;-74
2023/04/28 08:22:59;;;;;;;3.80;2.60;;;23.60;60.50;;;;;;5022590;28;20501;-73
2023/04/28 08:25:27;;;;;;;4.33;2.60;;;23.60;60.50;;;;;;5019240;28;20472;-74
2023/04/28 08:27:57;;;;;;;2.60;2.40;;;23.60;60.50;;;;;;5016618;28;21020;-73
2023/04/28 08:30:25;;;;;;;4.27;2.60;;;23.60;60.50;;;;;;5027341;28;20516;-74
2023/04/28 08:32:53;;;;;;;3.77;2.57;;;23.60;60.40;;;;;;5032383;28;20519;-76
2023/04/28 08:35:22;;;;;;;7.63;3.40;;;23.60;60.50;;;;;;5028644;28;20877;-75
2023/04/28 08:37:51;;;;;;;3.20;2.40;;;23.60;60.50;;;;;;5024988;28;20484;-74
2023/04/28 08:40:20;;;;;;;4.20;2.27;;;23.60;60.50;;;;;;5018346;28;20547;-78
2023/04/28 08:42:48;;;;;;;5.60;2.90;;;23.60;60.40;;;;;;5025147;28;21158;-79
2023/04/28 08:45:18;;;;;;;6.03;2.80;;;23.70;60.50;;;;;;5029216;28;20466;-70
2023/04/28 08:47:49;;;;;;;2.93;2.73;;;23.70;60.40;;;;;;5032598;28;20984;-78
2023/04/28 08:50:21;;;;;;;5.03;2.10;;;23.70;60.40;;;;;;5005280;28;20687;-73
2023/04/28 08:52:53;;;;;;;5.33;2.90;;;23.60;60.30;;;;;;5023132;28;20472;-79
2023/04/28 08:55:22;;;;;;;3.57;2.67;;;23.60;60.50;;;;;;5019661;28;21009;-76
2023/04/28 08:57:51;;;;;;;2.73;2.30;;;23.60;60.50;;;;;;5028286;28;20456;-76
2023/04/28 09:00:21;;;;;;;3.03;2.40;;;23.60;60.50;;;;;;5023087;28;20816;-75
2023/04/28 09:02:49;;;;;;;2.13;1.90;;;23.60;60.40;;;;;;5024001;28;20543;-79
2023/04/28 09:05:18;;;;;;;3.90;2.37;;;23.60;60.40;;;;;;5028735;28;20774;-75
2023/04/28 09:07:47;;;;;;;3.03;2.03;;;23.60;60.50;;;;;;5023409;28;20533;-77
2023/04/28 09:10:17;;;;;;;2.73;2.53;;;23.60;60.50;;;;;;5009156;28;20503;-74
2023/04/28 09:12:45;;;;;;;3.00;2.30;;;23.60;60.40;;;;;;5025132;28;20509;-75
2023/04/28 09:15:30;;;;;;;3.33;2.80;;;23.60;60.30;;;;;;5021390;28;20467;-75
2023/04/28 09:18:02;;;;;;;2.30;2.10;;;23.70;60.30;;;;;;5027037;28;20460;-76
2023/04/28 09:20:32;;;;;;;2.40;2.20;;;23.70;60.30;;;;;;5020449;28;20465;-76
2023/04/28 09:23:14;;;;;;;2.27;2.07;;;23.70;60.20;;;;;;5024404;28;20486;-76
2023/04/28 09:25:56;;;;;;;3.63;2.43;;;23.70;60.30;;;;;;5024077;28;20913;-76
2023/04/28 09:28:24;;;;;;;2.10;1.97;;;23.70;60.20;;;;;;5016355;28;20977;-79
2023/04/28 09:30:54;;;;;;;2.67;2.47;;;23.70;60.40;;;;;;5025752;28;20460;-77
2023/04/28 09:33:23;;;;;;;2.13;2.00;;;23.70;60.40;;;;;;5023900;28;20559;-77
2023/04/28 09:35:51;;;;;;;2.30;2.10;;;23.70;60.50;;;;;;5018643;28;20456;-77
2023/04/28 09:38:21;;;;;;;2.57;2.37;;;23.70;60.40;;;;;;5022707;28;20492;-78
2023/04/28 09:40:57;;;;;;;2.37;2.17;;;23.70;60.30;;;;;;5015999;28;20483;-80
2023/04/28 09:43:27;;;;;;;2.30;2.10;;;23.70;60.20;;;;;;5020048;28;20567;-78
2023/04/28 09:45:57;;;;;;;2.03;1.93;;;23.70;60.10;;;;;;5018341;28;20570;-79
2023/04/28 09:48:31;;;;;;;2.97;2.20;;;23.70;60.00;;;;;;5006901;28;20465;-80
2023/04/28 09:51:01;;;;;;;2.50;2.30;;;23.80;59.90;;;;;;5019229;28;21050;-80
2023/04/28 09:53:30;;;;;;;2.47;2.07;;;23.80;59.90;;;;;;5022361;28;20471;-79
2023/04/28 09:56:00;;;;;;;3.20;2.17;;;23.80;59.80;;;;;;5024985;28;20451;-78
2023/04/28 09:58:31;;;;;;;2.20;2.00;;;23.80;59.70;;;;;;5027539;28;20458;-80
2023/04/28 10:01:01;;;;;;;2.27;1.90;;;23.80;59.70;;;;;;5031349;28;20452;-80
2023/04/28 10:03:31;;;;;;;3.83;1.83;;;23.80;59.80;;;;;;5027704;28;20509;-80
2023/04/28 10:05:59;;;;;;;2.00;1.80;;;23.90;60.00;;;;;;5028918;28;20488;-80
2023/04/28 10:08:28;;;;;;;3.93;2.00;;;23.90;60.00;;;;;;5024295;28;20599;-80
2023/04/28 10:10:57;;;;;;;2.93;2.50;;;23.90;60.10;;;;;;5024010;28;20454;-79
2023/04/28 10:13:25;;;;;;;6.50;3.30;;;23.90;60.10;;;;;;5018835;28;20560;-76
2023/04/28 10:15:56;;;;;;;4.90;2.60;;;23.90;60.00;;;;;;5028333;28;20487;-82
2023/04/28 10:18:27;;;;;;;4.10;2.77;;;23.90;60.20;;;;;;5024771;28;20453;-78
2023/04/28 10:20:59;;;;;;;6.33;3.00;;;23.90;60.30;;;;;;5031905;28;20541;-77
2023/04/28 10:24:09;;;;;;;8.83;3.17;;;23.90;60.20;;;;;;5033035;28;20518;-77
2023/04/28 10:27:03;;;;;;;13.43;3.50;;;23.90;60.20;;;;;;5029292;28;21000;-76
2023/04/28 10:29:33;;;;;;;8.47;3.43;;;23.90;60.00;;;;;;5030541;28;20459;-76
2023/04/28 10:32:22;;;;;;;3.30;2.50;;;23.90;60.00;;;;;;5024693;28;20492;-76
2023/04/28 10:34:52;;;;;;;9.20;3.60;;;23.90;59.80;;;;;;5021914;28;20447;-76
2023/04/28 10:37:41;;;;;;;2.70;1.90;;;23.90;59.80;;;;;;5033329;28;20452;-76
2023/04/28 10:40:31;;;;;;;5.13;2.50;;;23.90;59.60;;;;;;5026572;28;20549;-76
2023/04/28 10:42:59;;;;;;;8.63;2.57;;;23.90;59.50;;;;;;5026448;28;20493;-76
2023/04/28 10:46:04;;;;;;;7.60;2.87;;;23.90;59.60;;;;;;5023517;28;20539;-76
2023/04/28 10:49:07;;;;;;;7.13;3.23;;;23.90;59.40;;;;;;5030144;28;20943;-77
2023/04/28 10:51:36;;;;;;;5.73;2.47;;;23.90;59.50;;;;;;5014108;28;20865;-77
2023/04/28 10:54:27;;;;;;;4.33;2.53;;;23.90;59.30;;;;;;5026447;28;20513;-76
2023/04/28 10:57:15;;;;;;;5.70;2.60;;;23.90;59.40;;;;;;5024386;28;20460;-76
2023/04/28 10:59:43;;;;;;;3.67;3.17;;;23.90;59.20;;;;;;5025471;28;20465;-76
2023/04/28 11:02:40;;;;;;;5.90;2.53;;;24.00;59.20;;;;;;5033939;28;20963;-76
2023/04/28 11:05:17;;;;;;;6.90;2.73;;;24.00;59.00;;;;;;5034216;28;20570;-76
2023/04/28 11:08:29;;;;;;;6.23;2.47;;;24.00;59.10;;;;;;5022626;28;20469;-76
2023/04/28 11:11:23;;;;;;;3.73;2.13;;;24.10;58.90;;;;;;5030590;28;20462;-78
2023/04/28 11:13:51;;;;;;;5.20;3.67;;;24.10;58.90;;;;;;5028486;28;20456;-77
2023/04/28 11:16:22;;;;;;;5.70;2.50;;;24.10;58.80;;;;;;5024851;28;20552;-79
2023/04/28 11:19:05;;;;;;;5.23;2.23;;;24.20;59.10;;;;;;5028123;28;20456;-78
2023/04/28 11:21:33;;;;;;;3.60;1.97;;;24.20;59.00;;;;;;5027000;28;20514;-80
2023/04/28 11:24:09;;;;;;;2.97;1.90;;;24.20;58.90;;;;;;5026163;28;22010;-78
2023/04/28 11:26:39;;;;;;;4.43;1.80;;;24.30;59.20;;;;;;5020019;28;20501;-77
2023/04/28 11:29:08;;;;;;;3.33;1.90;;;24.40;58.70;;;;;;5007332;28;20460;-78
2023/04/28 11:31:37;;;;;;;3.97;2.10;;;24.40;58.40;;;;;;5024896;28;20512;-78
2023/04/28 11:34:06;;;;;;;4.87;2.07;;;24.50;58.10;;;;;;5029439;28;20468;-77
2023/04/28 11:36:36;;;;;;;3.00;2.43;;;24.50;57.90;;;;;;5024363;28;20493;-78
2023/04/28 11:39:06;;;;;;;2.83;2.07;;;24.60;58.10;;;;;;5027324;28;20497;-78
2023/04/28 11:41:35;;;;;;;4.13;2.20;;;24.70;58.00;;;;;;5021607;28;20464;-78
2023/04/28 11:44:12;;;;;;;2.33;2.17;;;24.70;57.90;;;;;;5012486;28;20838;-78
2023/04/28 11:46:49;;;;;;;4.23;2.00;;;24.70;57.60;;;;;;5024715;28;20547;-78
2023/04/28 11:49:18;;;;;;;2.73;2.03;;;24.70;57.80;;;;;;5022791;28;20458;-78
2023/04/28 11:51:48;;;;;;;4.33;1.87;;;24.70;57.60;;;;;;5015676;28;21116;-77
2023/04/28 11:54:21;;;;;;;2.60;1.70;;;24.70;57.50;;;;;;5022759;28;20490;-78
2023/04/28 11:56:50;;;;;;;3.03;1.70;;;24.70;58.00;;;;;;5032503;28;20956;-77
2023/04/28 11:59:24;;;;;;;3.33;2.23;;;24.70;57.70;;;;;;5028710;28;20555;-77
2023/04/28 12:01:55;;;;;;;3.00;1.87;;;24.70;58.00;;;;;;5024887;28;20460;-77
2023/04/28 12:04:29;;;;;;;3.53;2.10;;;24.80;57.70;;;;;;5033263;28;20463;-77
2023/04/28 12:07:02;;;;;;;4.40;1.70;;;24.80;57.70;;;;;;5025875;28;20455;-77
2023/04/28 12:09:31;;;;;;;3.00;2.17;;;24.80;57.50;;;;;;5001632;28;20461;-78
2023/04/28 12:12:01;;;;;;;3.07;2.07;;;24.80;57.80;;;;;;5020905;28;20549;-78
2023/04/28 12:14:34;;;;;;;2.10;1.83;;;24.90;57.90;;;;;;5021142;28;20815;-81
2023/04/28 12:17:03;;;;;;;2.40;1.97;;;24.80;57.70;;;;;;5006351;28;20464;-79
2023/04/28 12:19:42;;;;;;;3.60;1.83;;;24.80;57.80;;;;;;5028050;28;20487;-78
2023/04/28 12:22:11;;;;;;;2.67;2.30;;;24.70;57.80;;;;;;5027812;28;20952;-67
2023/04/28 12:24:39;;;;;;;6.07;1.80;;;24.60;58.20;;;;;;5021391;28;20485;-74
2023/04/28 12:27:15;;;;;;;2.17;1.90;;;24.60;58.60;;;;;;5026388;28;20560;-70
2023/04/28 12:29:48;;;;;;;3.10;1.70;;;24.50;59.00;;;;;;5027686;28;20467;-71
2023/04/28 12:32:16;;;;;;;3.13;1.93;;;24.50;59.10;;;;;;5030115;28;20519;-75
2023/04/28 12:34:46;;;;;;;3.63;3.00;;;24.50;59.00;;;;;;5025460;28;20466;-79
2023/04/28 12:37:14;;;;;;;2.50;2.00;;;24.50;59.20;;;;;;5027907;28;20496;-78
2023/04/28 12:39:42;;;;;;;1.87;1.60;;;24.50;59.20;;;;;;5028749;28;20480;-79
2023/04/28 12:42:11;;;;;;;3.73;2.43;;;24.50;59.10;;;;;;5027193;28;20468;-76
2023/04/28 12:44:40;;;;;;;6.00;2.07;;;24.50;59.30;;;;;;5029760;28;21179;-77
2023/04/28 12:47:11;;;;;;;3.00;1.87;;;24.50;59.40;;;;;;5030919;28;20463;-79
2023/04/28 12:49:40;;;;;;;2.57;1.60;;;24.50;59.30;;;;;;5028847;28;20490;-76
2023/04/28 12:52:08;;;;;;;3.23;1.60;;;24.50;59.20;;;;;;5028347;28;20461;-78
2023/04/28 12:54:37;;;;;;;1.70;1.60;;;24.50;59.40;;;;;;5028019;28;20452;-77
2023/04/28 12:57:06;;;;;;;2.30;1.37;;;24.50;59.20;;;;;;5021409;28;20456;-80
2023/04/28 12:59:35;;;;;;;5.33;1.97;;;24.50;59.20;;;;;;5026089;28;20463;-78
2023/04/28 13:02:04;;;;;;;3.37;2.40;;;24.60;59.50;;;;;;5028555;28;20463;-78
2023/04/28 13:04:35;;;;;;;5.43;1.83;;;24.60;59.40;;;;;;5029421;28;20468;-79